Time;durP1;ratioP1;P1;durP2;ratioP2;P2;SDS_P1;SDS_P2;PMS_P1;PMS_P2;Temp;Humidity;BMP_temperature;BMP_pressure;BME280_temperature;BME280_humidity;BME280_pressure;Samples;Min_cycle;Max_cycle;Signal;HPM_P1;HPM_P2
2023/05/20 00:00:09;;;;;;;1.43;1.00;;;13.70;93.60;;;;;;5065413;28;20457;-76
2023/05/20 00:02:36;;;;;;;1.50;1.00;;;13.70;93.40;;;;;;5058224;28;20880;-76
2023/05/20 00:05:03;;;;;;;1.47;1.00;;;13.70;93.40;;;;;;5052644;28;20494;-77
2023/05/20 00:07:31;;;;;;;1.43;1.00;;;13.70;93.70;;;;;;5050738;28;20501;-77
2023/05/20 00:09:57;;;;;;;1.40;1.00;;;13.70;93.70;;;;;;5050504;28;20498;-77
2023/05/20 00:12:24;;;;;;;1.43;0.90;;;13.70;93.50;;;;;;5051947;28;20462;-76
2023/05/20 00:14:52;;;;;;;1.47;1.00;;;13.70;93.70;;;;;;5050821;28;20469;-77
2023/05/20 00:17:19;;;;;;;1.43;1.00;;;13.60;93.70;;;;;;5052579;28;21004;-77
2023/05/20 00:19:46;;;;;;;1.50;1.00;;;13.60;93.70;;;;;;5054715;28;20986;-76
2023/05/20 00:22:13;;;;;;;1.43;1.00;;;13.60;93.60;;;;;;5057103;28;20540;-76
2023/05/20 00:24:40;;;;;;;1.50;0.90;;;13.60;93.40;;;;;;5051152;28;20505;-76
2023/05/20 00:27:06;;;;;;;1.47;1.00;;;13.60;93.90;;;;;;5052147;28;21106;-77
2023/05/20 00:29:34;;;;;;;1.43;1.00;;;13.60;94.00;;;;;;5060252;28;20507;-76
2023/05/20 00:32:02;;;;;;;1.50;1.00;;;13.60;93.90;;;;;;5063589;28;20486;-76
2023/05/20 00:34:29;;;;;;;1.50;1.00;;;13.60;93.90;;;;;;5060104;28;20458;-77
2023/05/20 00:36:55;;;;;;;1.50;1.00;;;13.60;94.00;;;;;;5056895;28;20958;-79
2023/05/20 00:39:22;;;;;;;1.47;1.00;;;13.60;94.10;;;;;;5055901;28;20504;-79
2023/05/20 00:41:52;;;;;;;1.47;1.00;;;13.50;94.20;;;;;;5059867;28;20454;-79
2023/05/20 00:44:22;;;;;;;1.47;0.90;;;13.50;94.30;;;;;;5060270;28;20484;-78
2023/05/20 00:46:49;;;;;;;1.50;1.10;;;13.50;94.20;;;;;;5063536;28;20524;-77
2023/05/20 00:49:18;;;;;;;1.43;1.00;;;13.50;94.40;;;;;;5058106;28;20528;-78
2023/05/20 00:51:45;;;;;;;1.43;1.00;;;13.50;94.40;;;;;;5063201;28;20485;-79
2023/05/20 00:54:12;;;;;;;1.43;1.00;;;13.50;94.50;;;;;;5053996;28;20537;-77
2023/05/20 00:56:39;;;;;;;1.50;1.00;;;13.50;94.50;;;;;;5061736;28;20458;-80
2023/05/20 00:59:06;;;;;;;1.47;1.00;;;13.50;94.80;;;;;;5058699;28;20886;-79
2023/05/20 01:01:32;;;;;;;1.47;1.00;;;13.50;94.60;;;;;;5062625;28;20565;-78
2023/05/20 01:04:00;;;;;;;1.47;0.90;;;13.50;94.80;;;;;;5054584;28;20466;-79
2023/05/20 01:06:28;;;;;;;1.43;0.97;;;13.50;94.40;;;;;;5068198;28;20574;-78
2023/05/20 01:08:55;;;;;;;1.47;1.00;;;13.40;95.20;;;;;;5054308;28;20583;-78
2023/05/20 01:11:26;;;;;;;1.40;1.00;;;13.40;95.40;;;;;;5060685;28;20486;-79
2023/05/20 01:13:57;;;;;;;1.47;1.00;;;13.30;95.60;;;;;;5065747;28;20462;-77
2023/05/20 01:16:25;;;;;;;1.40;1.00;;;13.30;95.70;;;;;;5058778;28;20459;-78
2023/05/20 01:18:56;;;;;;;1.50;0.90;;;13.30;95.80;;;;;;5054513;28;20513;-79
2023/05/20 01:21:23;;;;;;;1.47;1.00;;;13.20;96.00;;;;;;5064473;28;20837;-77
2023/05/20 01:23:51;;;;;;;1.50;1.13;;;13.20;95.90;;;;;;5056063;28;20482;-79
2023/05/20 01:26:20;;;;;;;1.43;1.00;;;13.20;96.30;;;;;;5054575;28;20458;-80
2023/05/20 01:28:49;;;;;;;1.50;1.10;;;13.10;96.20;;;;;;5060958;28;20493;-79
2023/05/20 01:31:21;;;;;;;1.43;1.00;;;13.10;96.20;;;;;;5053813;28;21310;-79
2023/05/20 01:34:00;;;;;;;1.47;1.00;;;13.10;96.20;;;;;;5083314;28;20457;-78
2023/05/20 01:36:29;;;;;;;1.50;1.00;;;13.10;96.30;;;;;;5062774;28;20462;-76
2023/05/20 01:38:58;;;;;;;1.50;1.00;;;13.10;96.60;;;;;;5067239;28;20850;-79
2023/05/20 01:41:26;;;;;;;1.50;1.00;;;13.10;96.90;;;;;;5061631;28;20455;-78
2023/05/20 01:43:54;;;;;;;1.47;1.00;;;13.00;96.60;;;;;;5060356;28;20489;-79
2023/05/20 01:46:21;;;;;;;1.50;1.00;;;13.00;97.40;;;;;;5057654;28;20466;-78
2023/05/20 01:48:48;;;;;;;1.50;0.93;;;13.00;96.50;;;;;;5058919;28;20817;-77
2023/05/20 01:51:15;;;;;;;1.50;1.00;;;13.00;96.60;;;;;;5059155;28;20549;-79
2023/05/20 01:53:42;;;;;;;1.47;1.00;;;13.00;96.50;;;;;;5054366;28;20486;-80
2023/05/20 01:56:10;;;;;;;1.47;1.00;;;13.00;97.30;;;;;;5059778;28;20779;-78
2023/05/20 01:58:37;;;;;;;1.50;1.00;;;13.00;97.30;;;;;;5058855;28;20900;-78
2023/05/20 02:01:04;;;;;;;1.50;1.00;;;12.90;97.30;;;;;;5059650;28;20920;-77
2023/05/20 02:03:31;;;;;;;1.50;1.10;;;12.90;97.50;;;;;;5062579;28;20454;-78
2023/05/20 02:05:57;;;;;;;1.50;1.10;;;12.90;97.40;;;;;;5056994;28;20500;-79
2023/05/20 02:08:24;;;;;;;1.50;1.10;;;12.80;97.50;;;;;;5058108;28;20511;-78
2023/05/20 02:10:51;;;;;;;1.47;1.00;;;12.80;97.70;;;;;;5058053;28;20885;-78
2023/05/20 02:13:19;;;;;;;1.50;1.10;;;12.80;98.00;;;;;;5068679;28;20458;-78
2023/05/20 02:15:46;;;;;;;1.47;1.00;;;12.70;98.10;;;;;;5058046;28;20491;-78
2023/05/20 02:18:13;;;;;;;1.50;1.00;;;12.70;98.10;;;;;;5057117;28;20488;-78
2023/05/20 02:20:41;;;;;;;1.47;1.00;;;12.70;97.90;;;;;;5059353;28;20934;-78
2023/05/20 02:23:08;;;;;;;1.47;1.00;;;12.70;98.20;;;;;;5062116;28;20527;-77
2023/05/20 02:25:35;;;;;;;1.50;1.00;;;12.70;98.20;;;;;;5060217;28;20581;-78
2023/05/20 02:28:04;;;;;;;1.43;1.00;;;12.70;98.20;;;;;;5055175;28;20493;-76
2023/05/20 02:30:32;;;;;;;1.50;1.10;;;12.70;98.20;;;;;;5063648;28;20462;-77
2023/05/20 02:32:59;;;;;;;1.47;1.00;;;12.70;98.20;;;;;;5054614;28;20462;-78
2023/05/20 02:35:26;;;;;;;1.50;1.00;;;12.70;98.20;;;;;;5057986;28;20462;-77
2023/05/20 02:37:52;;;;;;;1.47;1.00;;;12.70;98.20;;;;;;5060291;28;21077;-78
2023/05/20 02:40:19;;;;;;;1.43;1.00;;;12.70;98.20;;;;;;5055772;28;20458;-78
2023/05/20 02:42:46;;;;;;;1.47;1.00;;;12.60;98.10;;;;;;5057362;28;20454;-77
2023/05/20 02:45:13;;;;;;;1.43;1.00;;;12.60;98.20;;;;;;5056717;28;20454;-78
2023/05/20 02:47:41;;;;;;;1.43;1.10;;;12.60;98.20;;;;;;5056845;28;20956;-78
2023/05/20 02:50:08;;;;;;;1.47;1.10;;;12.60;98.20;;;;;;5057077;28;20462;-78
2023/05/20 02:52:36;;;;;;;1.47;1.00;;;12.60;98.20;;;;;;5063032;28;20490;-77
2023/05/20 02:55:03;;;;;;;1.50;1.00;;;12.60;98.20;;;;;;5062367;28;20469;-77
2023/05/20 02:57:30;;;;;;;1.50;1.00;;;12.50;98.20;;;;;;5054535;28;20458;-77
2023/05/20 02:59:56;;;;;;;1.40;1.00;;;12.50;98.20;;;;;;5057317;28;20465;-78
2023/05/20 03:02:23;;;;;;;1.43;1.10;;;12.50;98.20;;;;;;5062472;28;20464;-78
2023/05/20 03:04:52;;;;;;;2.90;2.70;;;12.50;98.20;;;;;;5057109;28;20458;-77
2023/05/20 03:07:20;;;;;;;1.43;1.00;;;12.50;98.20;;;;;;5065631;28;20935;-77
2023/05/20 03:09:47;;;;;;;1.50;1.00;;;12.40;98.20;;;;;;5059013;28;20454;-77
2023/05/20 03:12:16;;;;;;;1.47;1.00;;;12.40;98.20;;;;;;5058376;28;20489;-78
2023/05/20 03:14:43;;;;;;;1.43;1.00;;;12.30;98.20;;;;;;5057239;28;20798;-78
2023/05/20 03:17:11;;;;;;;1.47;1.00;;;12.30;98.20;;;;;;5054407;28;20473;-79
2023/05/20 03:19:37;;;;;;;1.50;1.00;;;12.30;98.20;;;;;;5054105;28;20520;-78
2023/05/20 03:22:08;;;;;;;1.43;1.00;;;12.30;98.20;;;;;;5060267;28;20481;-78
2023/05/20 03:24:35;;;;;;;1.47;1.00;;;12.30;98.20;;;;;;5060092;28;20568;-78
2023/05/20 03:27:02;;;;;;;1.50;1.10;;;12.20;98.20;;;;;;5055723;28;20462;-77
2023/05/20 03:29:30;;;;;;;1.50;1.10;;;12.20;98.20;;;;;;5056815;28;20585;-77
2023/05/20 03:31:57;;;;;;;1.50;1.00;;;12.20;98.20;;;;;;5058877;28;20483;-79
2023/05/20 03:34:24;;;;;;;1.47;1.00;;;12.10;98.20;;;;;;5057624;28;20544;-78
2023/05/20 03:36:51;;;;;;;1.50;1.00;;;12.10;98.20;;;;;;5056550;28;20453;-78
2023/05/20 03:39:19;;;;;;;1.47;1.10;;;12.00;98.20;;;;;;5069283;28;20488;-78
2023/05/20 03:41:46;;;;;;;1.50;1.10;;;12.00;98.20;;;;;;5067886;28;20454;-78
2023/05/20 03:44:13;;;;;;;1.47;1.00;;;12.00;98.20;;;;;;5067212;28;20461;-79
2023/05/20 03:46:40;;;;;;;1.47;1.00;;;11.90;98.20;;;;;;5068236;28;20725;-78
2023/05/20 03:49:06;;;;;;;1.47;1.00;;;11.90;98.20;;;;;;5068677;28;20560;-78
2023/05/20 03:51:33;;;;;;;1.50;1.10;;;11.90;98.20;;;;;;5067630;28;20485;-78
2023/05/20 03:54:00;;;;;;;1.47;1.00;;;11.80;98.20;;;;;;5068866;28;20988;-76
2023/05/20 03:56:29;;;;;;;1.50;1.00;;;11.80;98.20;;;;;;5068841;28;20474;-78
2023/05/20 03:58:55;;;;;;;1.50;1.00;;;11.80;98.20;;;;;;5069334;28;20473;-78
2023/05/20 04:01:24;;;;;;;1.47;1.10;;;11.80;98.20;;;;;;5075875;28;20485;-78
2023/05/20 04:03:51;;;;;;;1.50;1.00;;;11.80;98.20;;;;;;5078986;28;20563;-78
2023/05/20 04:06:18;;;;;;;1.43;1.00;;;11.80;98.20;;;;;;5069647;28;20468;-78
2023/05/20 04:08:45;;;;;;;1.47;1.00;;;11.80;98.20;;;;;;5068804;28;20469;-78
2023/05/20 04:11:12;;;;;;;1.47;1.00;;;11.80;98.20;;;;;;5068655;28;20534;-78
2023/05/20 04:13:40;;;;;;;1.43;1.00;;;11.90;98.20;;;;;;5063513;28;20464;-79
2023/05/20 04:16:07;;;;;;;1.50;1.10;;;11.90;98.20;;;;;;5063480;28;20477;-77
2023/05/20 04:18:37;;;;;;;1.50;1.10;;;12.00;98.20;;;;;;5067438;28;20936;-78
2023/05/20 04:21:11;;;;;;;1.47;1.00;;;12.00;98.20;;;;;;5067178;28;20454;-77
2023/05/20 04:23:38;;;;;;;1.47;1.00;;;12.10;98.20;;;;;;5067756;28;20454;-78
2023/05/20 04:26:05;;;;;;;1.50;1.20;;;12.10;98.20;;;;;;5063375;28;20895;-78
2023/05/20 04:28:31;;;;;;;1.43;0.90;;;12.20;98.20;;;;;;5071681;28;20481;-79
2023/05/20 04:31:01;;;;;;;1.50;1.00;;;12.20;98.20;;;;;;5070206;28;21562;-78
2023/05/20 04:33:28;;;;;;;1.50;1.10;;;12.30;98.20;;;;;;5068134;28;20470;-78
2023/05/20 04:35:57;;;;;;;1.47;1.00;;;12.30;98.20;;;;;;5068511;28;20458;-78
2023/05/20 04:38:28;;;;;;;1.50;1.00;;;12.40;98.20;;;;;;5070338;28;20766;-78
2023/05/20 04:40:56;;;;;;;1.50;1.10;;;12.40;98.20;;;;;;5071379;28;20454;-78
2023/05/20 04:43:24;;;;;;;1.50;1.10;;;12.50;98.20;;;;;;5071091;28;20477;-78
2023/05/20 04:45:51;;;;;;;1.47;1.00;;;12.60;98.20;;;;;;5071168;28;20484;-77
2023/05/20 04:48:21;;;;;;;1.47;1.00;;;12.60;98.20;;;;;;5071596;28;20481;-78
2023/05/20 04:50:48;;;;;;;1.47;0.90;;;12.70;98.20;;;;;;5068207;28;20507;-78
2023/05/20 04:53:16;;;;;;;1.47;1.00;;;12.80;98.20;;;;;;5067738;28;20486;-79
2023/05/20 04:55:43;;;;;;;1.43;1.00;;;13.00;98.20;;;;;;5063650;28;20491;-78
2023/05/20 04:58:14;;;;;;;1.50;1.00;;;13.10;98.20;;;;;;5070980;28;20480;-78
2023/05/20 05:00:42;;;;;;;1.50;1.10;;;13.30;98.20;;;;;;5069487;28;20932;-78
2023/05/20 05:03:08;;;;;;;1.50;1.10;;;13.40;98.20;;;;;;5069399;28;20465;-78
2023/05/20 05:05:37;;;;;;;1.50;1.00;;;13.60;98.20;;;;;;5069210;28;20523;-79
2023/05/20 05:08:05;;;;;;;1.50;1.10;;;13.80;98.20;;;;;;5067713;28;20485;-78
2023/05/20 05:10:32;;;;;;;1.47;1.00;;;14.00;98.20;;;;;;5068048;28;20465;-78
2023/05/20 05:13:24;;;;;;;1.43;1.00;;;14.10;98.20;;;;;;5068652;28;20882;-78
2023/05/20 05:15:58;;;;;;;1.47;1.00;;;14.30;98.20;;;;;;5064841;28;20458;-79
2023/05/20 05:18:25;;;;;;;1.40;1.00;;;14.50;98.00;;;;;;5076558;28;20464;-79
2023/05/20 05:21:00;;;;;;;1.50;1.00;;;14.70;97.60;;;;;;5069663;28;20481;-78
2023/05/20 05:23:27;;;;;;;1.50;1.00;;;14.80;96.10;;;;;;5066698;28;20643;-78
2023/05/20 05:25:54;;;;;;;1.47;1.00;;;14.90;95.60;;;;;;5068523;28;20468;-79
2023/05/20 05:28:21;;;;;;;1.50;1.00;;;15.00;95.60;;;;;;5067461;28;21069;-79
2023/05/20 05:30:48;;;;;;;1.43;1.10;;;15.10;95.00;;;;;;5067728;28;20958;-78
2023/05/20 05:33:14;;;;;;;1.50;1.00;;;15.10;94.70;;;;;;5068217;28;20484;-79
2023/05/20 05:35:42;;;;;;;1.40;1.00;;;15.20;94.40;;;;;;5066725;28;20465;-78
2023/05/20 05:38:10;;;;;;;1.50;1.00;;;15.30;94.40;;;;;;5068691;28;20477;-79
2023/05/20 05:40:37;;;;;;;1.43;0.90;;;15.40;94.00;;;;;;5069177;28;20588;-80
2023/05/20 05:43:03;;;;;;;1.43;1.00;;;15.40;93.60;;;;;;5068060;28;20916;-78
2023/05/20 05:45:30;;;;;;;1.43;0.90;;;15.40;93.70;;;;;;5068248;28;20832;-79
2023/05/20 05:47:57;;;;;;;1.50;1.00;;;15.50;93.30;;;;;;5067974;28;20481;-79
2023/05/20 05:50:24;;;;;;;1.50;1.13;;;15.60;93.60;;;;;;5067680;28;20468;-78
2023/05/20 05:52:51;;;;;;;1.50;1.00;;;15.70;93.30;;;;;;5067857;28;21186;-78
2023/05/20 05:55:19;;;;;;;1.50;1.00;;;15.70;93.10;;;;;;5069573;28;20461;-76
2023/05/20 05:57:46;;;;;;;1.50;1.00;;;15.80;93.00;;;;;;5069073;28;20493;-80
2023/05/20 06:00:13;;;;;;;1.43;1.00;;;15.80;92.90;;;;;;5068957;28;20461;-83
2023/05/20 06:02:40;;;;;;;1.47;1.00;;;15.80;92.50;;;;;;5072166;28;20486;-79
2023/05/20 06:05:09;;;;;;;1.50;1.00;;;15.80;92.50;;;;;;5066041;28;20464;-79
2023/05/20 06:07:36;;;;;;;1.50;0.90;;;15.70;92.60;;;;;;5069429;28;20484;-79
2023/05/20 06:10:03;;;;;;;1.40;0.90;;;15.70;92.80;;;;;;5063754;28;20463;-78
2023/05/20 06:12:31;;;;;;;1.47;0.90;;;15.70;93.00;;;;;;5065411;28;20794;-77
2023/05/20 06:14:57;;;;;;;1.47;0.90;;;15.70;93.10;;;;;;5065335;28;20784;-77
2023/05/20 06:17:24;;;;;;;1.43;1.00;;;15.70;92.80;;;;;;5065455;28;20511;-76
2023/05/20 06:19:51;;;;;;;1.47;0.90;;;15.70;92.80;;;;;;5067083;28;20461;-79
2023/05/20 06:22:21;;;;;;;1.50;1.00;;;15.70;92.70;;;;;;5066495;28;20488;-78
2023/05/20 06:24:48;;;;;;;1.47;0.90;;;15.60;92.70;;;;;;5066025;28;20527;-76
2023/05/20 06:27:15;;;;;;;1.43;1.00;;;15.60;93.10;;;;;;5067361;28;20453;-76
2023/05/20 06:29:43;;;;;;;1.43;0.90;;;15.70;93.20;;;;;;5067988;28;20457;-80
2023/05/20 06:32:10;;;;;;;1.47;0.90;;;15.70;93.40;;;;;;5069035;28;20868;-80
2023/05/20 06:34:37;;;;;;;1.50;0.90;;;15.80;92.90;;;;;;5068047;28;20469;-78
2023/05/20 06:37:04;;;;;;;1.43;1.00;;;15.90;93.10;;;;;;5067458;28;20480;-79
2023/05/20 06:39:31;;;;;;;1.40;0.93;;;16.00;93.30;;;;;;5068616;28;20580;-80
2023/05/20 06:41:58;;;;;;;1.40;1.00;;;16.00;92.90;;;;;;5071485;28;20587;-79
2023/05/20 06:44:25;;;;;;;1.50;1.00;;;16.00;92.50;;;;;;5067531;28;21064;-79
2023/05/20 06:46:53;;;;;;;1.43;0.90;;;16.00;92.30;;;;;;5066372;28;20454;-78
2023/05/20 06:49:20;;;;;;;1.50;0.90;;;16.00;92.60;;;;;;5068960;28;20575;-79
2023/05/20 06:51:48;;;;;;;1.50;0.90;;;16.00;92.40;;;;;;5067360;28;20831;-78
2023/05/20 06:54:14;;;;;;;1.47;0.90;;;16.00;92.50;;;;;;5064777;28;20484;-78
2023/05/20 06:56:41;;;;;;;1.47;1.00;;;16.00;92.00;;;;;;5066397;28;20470;-77
2023/05/20 06:59:08;;;;;;;1.50;1.00;;;16.10;91.90;;;;;;5067848;28;20491;-78
2023/05/20 07:01:35;;;;;;;1.47;0.93;;;16.00;92.00;;;;;;5065327;28;20499;-78
2023/05/20 07:04:03;;;;;;;1.43;0.97;;;16.00;92.20;;;;;;5065676;28;20893;-83
2023/05/20 07:06:31;;;;;;;1.43;0.90;;;16.10;92.40;;;;;;5071159;28;20994;-81
2023/05/20 07:08:58;;;;;;;1.40;1.00;;;16.10;92.60;;;;;;5071640;28;20476;-83
2023/05/20 07:11:24;;;;;;;1.50;1.10;;;16.10;92.80;;;;;;5071501;28;20552;-78
2023/05/20 07:13:52;;;;;;;1.47;1.00;;;16.20;93.10;;;;;;5066928;28;20489;-78
2023/05/20 07:16:19;;;;;;;1.50;1.20;;;16.30;92.10;;;;;;5066841;28;21004;-79
2023/05/20 07:18:45;;;;;;;1.43;1.00;;;16.30;92.10;;;;;;5067173;28;20508;-78
2023/05/20 07:21:14;;;;;;;1.40;0.93;;;16.40;92.40;;;;;;5068838;28;20504;-79
2023/05/20 07:23:41;;;;;;;1.50;1.20;;;16.50;92.50;;;;;;5067427;28;20534;-77
2023/05/20 07:26:07;;;;;;;1.47;1.00;;;16.50;91.80;;;;;;5066991;28;20461;-78
2023/05/20 07:28:35;;;;;;;1.47;0.90;;;16.60;91.60;;;;;;5067479;28;20934;-78
2023/05/20 07:31:02;;;;;;;1.47;0.90;;;16.60;91.40;;;;;;5067149;28;20507;-79
2023/05/20 07:33:29;;;;;;;1.47;0.90;;;16.60;91.20;;;;;;5066725;28;20918;-77
2023/05/20 07:35:56;;;;;;;1.47;0.90;;;16.70;90.90;;;;;;5068880;28;20503;-78
2023/05/20 07:38:24;;;;;;;1.50;0.90;;;16.80;91.30;;;;;;5063748;28;20510;-79
2023/05/20 07:41:15;;;;;;;1.43;0.90;;;16.80;91.40;;;;;;5066420;28;20546;-79
2023/05/20 07:43:42;;;;;;;1.50;1.10;;;16.90;91.00;;;;;;5064584;28;20527;-78
2023/05/20 07:46:09;;;;;;;1.47;0.90;;;17.00;91.00;;;;;;5064974;28;20832;-79
2023/05/20 07:48:36;;;;;;;1.50;1.00;;;17.20;90.70;;;;;;5063273;28;20514;-79
2023/05/20 07:51:04;;;;;;;1.40;0.90;;;17.30;90.20;;;;;;5063669;28;20461;-79
2023/05/20 07:53:33;;;;;;;1.40;0.90;;;17.40;89.90;;;;;;5063998;28;20492;-79
2023/05/20 07:56:03;;;;;;;1.50;0.90;;;17.40;89.90;;;;;;5065804;28;20863;-80
2023/05/20 07:58:33;;;;;;;1.43;0.90;;;17.60;89.80;;;;;;5064524;28;20535;-79
2023/05/20 08:01:01;;;;;;;1.73;1.63;;;17.70;89.40;;;;;;5062237;28;20458;-79
2023/05/20 08:03:28;;;;;;;1.50;1.10;;;17.80;89.70;;;;;;5065249;28;20616;-77
2023/05/20 08:05:56;;;;;;;1.47;0.90;;;17.90;89.20;;;;;;5066285;28;20522;-80
2023/05/20 08:08:23;;;;;;;1.50;1.00;;;18.00;89.80;;;;;;5054518;28;20489;-78
2023/05/20 08:10:52;;;;;;;1.50;0.90;;;18.10;88.30;;;;;;5061860;28;21010;-81
2023/05/20 08:13:20;;;;;;;1.50;1.10;;;18.10;88.30;;;;;;5064797;28;20481;-78
2023/05/20 08:15:48;;;;;;;1.47;0.90;;;18.20;89.00;;;;;;5061934;28;20553;-81
2023/05/20 08:18:16;;;;;;;1.40;0.90;;;18.40;88.40;;;;;;5062033;28;21024;-80
2023/05/20 08:20:44;;;;;;;1.47;0.90;;;18.40;87.90;;;;;;5062111;28;20662;-80
2023/05/20 08:23:12;;;;;;;1.50;0.90;;;18.40;87.30;;;;;;5057050;28;21093;-77
2023/05/20 08:25:42;;;;;;;1.47;0.90;;;18.40;88.00;;;;;;5064805;28;20485;-82
2023/05/20 08:28:10;;;;;;;1.43;0.90;;;18.40;88.20;;;;;;5065261;28;20489;-78
2023/05/20 08:30:38;;;;;;;1.47;0.90;;;18.40;88.60;;;;;;5061745;28;20468;-79
2023/05/20 08:33:05;;;;;;;1.43;0.90;;;18.50;88.00;;;;;;5060595;28;20921;-77
2023/05/20 08:35:32;;;;;;;1.47;0.97;;;18.60;87.70;;;;;;5062671;28;20469;-78
2023/05/20 08:38:00;;;;;;;1.50;0.90;;;18.60;87.80;;;;;;5061460;28;20516;-78
2023/05/20 08:40:28;;;;;;;1.47;0.90;;;18.60;87.60;;;;;;5060417;28;20833;-78
2023/05/20 08:42:57;;;;;;;1.43;0.90;;;18.80;87.60;;;;;;5059253;28;20470;-79
2023/05/20 08:45:27;;;;;;;1.47;0.90;;;19.00;87.00;;;;;;5063543;28;20934;-80
2023/05/20 08:47:55;;;;;;;1.47;0.90;;;19.20;86.00;;;;;;5059977;28;20576;-79
2023/05/20 08:50:22;;;;;;;1.50;0.90;;;19.20;86.30;;;;;;5060229;28;20474;-78
2023/05/20 08:52:50;;;;;;;1.47;0.90;;;19.30;86.10;;;;;;5061649;28;20484;-79
2023/05/20 08:55:25;;;;;;;1.50;0.90;;;19.40;85.60;;;;;;5059683;28;21027;-77
2023/05/20 08:57:54;;;;;;;1.43;0.90;;;19.40;85.30;;;;;;5060961;28;20811;-80
2023/05/20 09:00:26;;;;;;;1.47;0.90;;;19.50;85.70;;;;;;5061249;28;20531;-79
2023/05/20 09:02:57;;;;;;;1.43;0.90;;;19.60;85.60;;;;;;5059744;28;21056;-81
2023/05/20 09:05:26;;;;;;;1.50;0.90;;;19.80;85.90;;;;;;5061401;28;20481;-78
2023/05/20 09:07:53;;;;;;;1.50;1.10;;;19.70;84.70;;;;;;5064239;28;20535;-79
2023/05/20 09:10:28;;;;;;;1.50;0.90;;;19.70;85.50;;;;;;5060965;28;20888;-80
2023/05/20 09:12:55;;;;;;;1.43;0.90;;;19.70;84.80;;;;;;5062952;28;20751;-79
2023/05/20 09:15:25;;;;;;;1.50;0.90;;;19.70;85.70;;;;;;5063248;28;20561;-80
2023/05/20 09:17:54;;;;;;;1.50;0.90;;;19.70;84.80;;;;;;5063045;28;20481;-79
2023/05/20 09:20:24;;;;;;;1.47;0.90;;;19.90;85.00;;;;;;5061333;28;20503;-76
2023/05/20 09:22:52;;;;;;;1.43;0.90;;;20.10;85.10;;;;;;5059781;28;20510;-78
2023/05/20 09:25:25;;;;;;;1.50;0.90;;;20.20;84.80;;;;;;5062682;28;20469;-78
2023/05/20 09:27:52;;;;;;;1.70;1.30;;;20.40;84.30;;;;;;5059980;28;20498;-78
2023/05/20 09:30:20;;;;;;;1.47;0.90;;;20.40;84.00;;;;;;5063142;28;20472;-80
2023/05/20 09:32:59;;;;;;;1.50;0.90;;;20.50;84.40;;;;;;5061739;28;20510;-80
2023/05/20 09:35:28;;;;;;;1.50;0.90;;;20.50;83.50;;;;;;5068786;28;20966;-79
2023/05/20 09:38:34;;;;;;;1.47;0.90;;;20.40;83.30;;;;;;5064305;28;20514;-81
2023/05/20 09:41:03;;;;;;;1.50;1.00;;;20.40;83.10;;;;;;5061330;28;20453;-81
2023/05/20 09:43:30;;;;;;;1.43;0.90;;;20.40;84.00;;;;;;5063741;28;21036;-80
2023/05/20 09:45:59;;;;;;;1.43;0.90;;;20.40;83.70;;;;;;5062281;28;20533;-76
2023/05/20 09:48:29;;;;;;;1.47;0.90;;;20.30;83.20;;;;;;5064497;28;20512;-78
2023/05/20 09:50:57;;;;;;;1.50;0.90;;;20.20;84.30;;;;;;5060319;28;20457;-78
2023/05/20 09:53:27;;;;;;;1.47;0.90;;;20.10;84.60;;;;;;5058762;28;21302;-78
2023/05/20 09:55:56;;;;;;;1.47;0.90;;;20.10;84.50;;;;;;5063061;28;20553;-77
2023/05/20 09:58:24;;;;;;;3.60;2.27;;;20.20;85.10;;;;;;5059088;28;20490;-79
2023/05/20 10:00:51;;;;;;;1.47;0.90;;;20.40;84.40;;;;;;5057217;28;20465;-78
2023/05/20 10:03:21;;;;;;;1.47;0.90;;;20.50;85.20;;;;;;5061815;28;20457;-80
2023/05/20 10:06:01;;;;;;;1.43;0.90;;;20.60;85.00;;;;;;5061822;28;21105;-78
2023/05/20 10:08:42;;;;;;;1.47;0.90;;;20.70;84.60;;;;;;5060890;28;20902;-80
2023/05/20 10:11:17;;;;;;;1.47;0.90;;;20.80;83.40;;;;;;5061321;28;20453;-78
2023/05/20 10:14:00;;;;;;;1.60;1.33;;;20.80;82.80;;;;;;5061095;28;20472;-81
2023/05/20 10:16:41;;;;;;;1.50;0.90;;;20.90;82.80;;;;;;5061507;28;20779;-80
2023/05/20 10:19:13;;;;;;;1.50;0.90;;;21.10;82.20;;;;;;5063986;28;20582;-79
2023/05/20 10:21:57;;;;;;;1.47;0.90;;;21.20;81.90;;;;;;5061510;28;20474;-80
2023/05/20 10:24:31;;;;;;;1.50;0.90;;;21.30;82.20;;;;;;5062074;28;20468;-79
2023/05/20 10:27:03;;;;;;;1.50;0.83;;;21.50;83.90;;;;;;5064277;28;20610;-82
2023/05/20 10:29:43;;;;;;;1.50;0.90;;;21.60;81.10;;;;;;5060658;28;20950;-79
2023/05/20 10:32:26;;;;;;;1.40;0.80;;;21.50;80.90;;;;;;5063443;28;20672;-80
2023/05/20 10:34:58;;;;;;;1.47;0.90;;;21.30;81.90;;;;;;5061738;28;20481;-80
2023/05/20 10:37:30;;;;;;;1.43;0.87;;;21.20;82.40;;;;;;5059316;28;20896;-80
2023/05/20 10:40:08;;;;;;;1.47;0.90;;;21.20;81.90;;;;;;5060289;28;20541;-81
2023/05/20 10:42:35;;;;;;;1.50;0.80;;;21.10;82.80;;;;;;5061560;28;20963;-83
2023/05/20 10:45:03;;;;;;;1.43;0.80;;;21.10;82.70;;;;;;5062617;28;20469;-80
2023/05/20 10:47:31;;;;;;;2.03;1.83;;;21.10;82.40;;;;;;5057518;28;20471;-79
2023/05/20 10:50:00;;;;;;;1.47;0.87;;;21.00;83.30;;;;;;5062527;28;20519;-78
2023/05/20 10:52:34;;;;;;;1.47;0.90;;;21.00;83.60;;;;;;5064885;28;20469;-80
2023/05/20 10:55:03;;;;;;;1.47;0.90;;;21.10;83.50;;;;;;5062739;28;20481;-78
2023/05/20 11:00:05;;;;;;;1.47;0.90;;;21.10;83.40;;;;;;5059084;28;21010;-79
2023/05/20 11:02:34;;;;;;;1.43;0.90;;;21.20;83.00;;;;;;5054623;28;20463;-80
2023/05/20 11:05:03;;;;;;;2.37;1.83;;;21.00;82.60;;;;;;5056807;28;20461;-79
2023/05/20 11:07:32;;;;;;;1.47;0.90;;;20.80;83.80;;;;;;5058238;28;20481;-80
2023/05/20 11:10:00;;;;;;;1.43;0.90;;;20.70;83.80;;;;;;5060995;28;20468;-78
2023/05/20 11:12:28;;;;;;;1.43;0.90;;;20.50;84.00;;;;;;5059003;28;20552;-78
2023/05/20 11:14:55;;;;;;;1.47;0.90;;;20.40;85.00;;;;;;5059593;28;21017;-78
2023/05/20 11:17:23;;;;;;;1.43;0.90;;;20.30;85.30;;;;;;5057368;28;20474;-80
2023/05/20 11:19:51;;;;;;;1.47;0.90;;;20.30;85.80;;;;;;5059440;28;20470;-78
2023/05/20 11:22:18;;;;;;;1.50;0.90;;;20.30;85.90;;;;;;5057848;28;20488;-80
2023/05/20 11:24:47;;;;;;;1.50;0.90;;;20.50;85.20;;;;;;5062083;28;20491;-79
2023/05/20 11:29:43;;;;;;;1.80;0.90;;;20.60;85.20;;;;;;5074625;22;20493;-78
2023/05/20 11:32:17;;;;;;;1.47;0.90;;;20.70;84.50;;;;;;5022489;28;21034;-81
2023/05/20 11:34:44;;;;;;;1.47;0.90;;;20.70;84.10;;;;;;5020259;28;20491;-78
2023/05/20 11:37:14;;;;;;;1.43;0.90;;;20.70;84.20;;;;;;5025737;28;20521;-80
2023/05/20 11:39:42;;;;;;;1.47;0.90;;;20.60;84.90;;;;;;5017583;28;20471;-80
2023/05/20 11:42:10;;;;;;;1.40;0.87;;;20.70;85.00;;;;;;5019186;28;20832;-77
2023/05/20 11:44:43;;;;;;;1.47;0.90;;;20.90;85.00;;;;;;5020125;28;20471;-79
2023/05/20 11:47:10;;;;;;;1.50;0.90;;;20.90;85.00;;;;;;5020919;28;20981;-79
2023/05/20 11:49:40;;;;;;;1.60;1.20;;;21.30;83.80;;;;;;5023207;28;20505;-79
2023/05/20 11:52:23;;;;;;;1.47;0.90;;;21.40;84.00;;;;;;5024230;28;20562;-78
2023/05/20 11:54:53;;;;;;;1.50;0.90;;;21.60;84.10;;;;;;5023859;28;20491;-80
2023/05/20 11:57:22;;;;;;;1.43;0.90;;;21.60;82.20;;;;;;5025469;28;20562;-80
2023/05/20 11:59:50;;;;;;;1.47;0.90;;;21.70;82.30;;;;;;5022739;28;20558;-77
2023/05/20 12:02:17;;;;;;;1.47;0.90;;;21.90;83.20;;;;;;5026130;28;20474;-79
2023/05/20 12:04:45;;;;;;;1.47;0.90;;;21.90;82.00;;;;;;5021600;28;21059;-77
2023/05/20 12:07:14;;;;;;;1.80;1.43;;;22.10;82.10;;;;;;5022584;28;20571;-78
2023/05/20 12:09:42;;;;;;;1.43;0.80;;;22.20;81.50;;;;;;5022256;28;20468;-81
2023/05/20 12:12:12;;;;;;;1.50;0.90;;;22.30;81.60;;;;;;5022344;28;20797;-78
2023/05/20 12:14:41;;;;;;;1.47;0.90;;;22.60;81.60;;;;;;5020777;28;20479;-77
2023/05/20 12:17:08;;;;;;;1.50;0.80;;;22.70;80.30;;;;;;5025933;28;20980;-82
2023/05/20 12:19:36;;;;;;;1.47;0.90;;;22.70;79.80;;;;;;5024502;28;21015;-77
2023/05/20 12:22:12;;;;;;;1.50;0.90;;;22.50;81.00;;;;;;5024061;28;20468;-82
2023/05/20 12:24:39;;;;;;;1.50;0.90;;;22.50;81.10;;;;;;5019497;28;21082;-84
2023/05/20 12:27:06;;;;;;;1.43;0.80;;;22.50;81.00;;;;;;5022899;28;20534;-80
2023/05/20 12:29:37;;;;;;;1.47;0.90;;;22.40;81.60;;;;;;5027498;28;20762;-82
2023/05/20 12:32:19;;;;;;;1.50;0.87;;;22.50;81.00;;;;;;5025666;28;20522;-80
2023/05/20 12:34:47;;;;;;;1.50;0.90;;;22.40;80.90;;;;;;5019806;28;20490;-81
2023/05/20 12:37:15;;;;;;;1.50;0.80;;;22.40;80.60;;;;;;5019642;28;20507;-80
2023/05/20 12:39:42;;;;;;;1.47;0.90;;;22.50;81.40;;;;;;5024777;28;21134;-79
2023/05/20 12:42:09;;;;;;;1.50;0.90;;;22.50;81.50;;;;;;5023347;28;20463;-77
2023/05/20 12:44:36;;;;;;;1.50;0.90;;;22.50;81.90;;;;;;5021300;28;20474;-81
2023/05/20 12:47:05;;;;;;;1.40;0.80;;;22.50;81.40;;;;;;5022571;28;21848;-80
2023/05/20 12:49:33;;;;;;;1.47;0.90;;;22.40;81.40;;;;;;5023460;28;21061;-76
2023/05/20 12:52:00;;;;;;;1.40;0.90;;;22.40;82.00;;;;;;5022631;28;20963;-80
2023/05/20 12:54:28;;;;;;;1.50;0.80;;;22.30;81.70;;;;;;5020999;28;20486;-79
2023/05/20 12:56:55;;;;;;;1.50;1.00;;;22.30;81.80;;;;;;5017585;28;20463;-78
2023/05/20 12:59:23;;;;;;;12.13;2.60;;;22.20;81.80;;;;;;5019665;28;20513;-79